Gorham, Kansas
Current Conditions -  °F | °C
As of 11:53 PM on Wednesday 28 Jan 2015 (Local Time) from KRSL Reporting Station
Clear Clear  
Wind Chill: 50°   Ceiling: Unl
Heat Index: 50°   Visibility: 10mi
Dew Point: 32°   Wind: 21mph
Humidity: 50%   Direction: 310°NW
Pressure: 30.07"   Gusts: NA
Location:  38.88°N, 99.02°W
Report Text: KRSL 290553Z AUTO 31018KT 10SM CLR 10/00 A3007 RMK AO2 SLP180 T01000000 10183 20100 402280028 53034
Loading
Personal Weather Stations






























Interactive Weather Map New forecast layout! Learn more

10-Day Weather Forecast

Advertisements
Track Severe Weather on mobile